sensor_id;sensor_type;location;lat;lon;timestamp;P1;durP1;ratioP1;P2;durP2;ratioP2
16892;SDS011;8563;52.242;9.098;2023-05-07T00:02:09;17.00;;;15.30;;
16892;SDS011;8563;52.242;9.098;2023-05-07T00:04:42;19.00;;;16.87;;
16892;SDS011;8563;52.242;9.098;2023-05-07T00:07:15;17.03;;;15.30;;
16892;SDS011;8563;52.242;9.098;2023-05-07T00:09:47;20.47;;;18.47;;
16892;SDS011;8563;52.242;9.098;2023-05-07T00:12:21;19.43;;;17.53;;
16892;SDS011;8563;52.242;9.098;2023-05-07T00:14:54;19.47;;;17.53;;
16892;SDS011;8563;52.242;9.098;2023-05-07T00:17:26;18.67;;;16.60;;
16892;SDS011;8563;52.242;9.098;2023-05-07T00:19:59;21.00;;;18.73;;
16892;SDS011;8563;52.242;9.098;2023-05-07T00:22:31;20.23;;;18.13;;
16892;SDS011;8563;52.242;9.098;2023-05-07T00:25:04;19.67;;;17.73;;
16892;SDS011;8563;52.242;9.098;2023-05-07T00:27:38;20.53;;;18.60;;
16892;SDS011;8563;52.242;9.098;2023-05-07T00:30:11;19.57;;;17.60;;
16892;SDS011;8563;52.242;9.098;2023-05-07T00:32:43;20.40;;;18.23;;
16892;SDS011;8563;52.242;9.098;2023-05-07T00:35:16;21.13;;;18.93;;
16892;SDS011;8563;52.242;9.098;2023-05-07T00:37:49;21.60;;;19.43;;
16892;SDS011;8563;52.242;9.098;2023-05-07T00:40:21;18.90;;;17.10;;
16892;SDS011;8563;52.242;9.098;2023-05-07T00:42:56;21.33;;;19.23;;
16892;SDS011;8563;52.242;9.098;2023-05-07T00:45:30;20.77;;;18.70;;
16892;SDS011;8563;52.242;9.098;2023-05-07T00:48:02;21.37;;;19.20;;
16892;SDS011;8563;52.242;9.098;2023-05-07T00:50:35;23.77;;;21.37;;
16892;SDS011;8563;52.242;9.098;2023-05-07T00:53:08;21.50;;;19.37;;
16892;SDS011;8563;52.242;9.098;2023-05-07T00:55:40;23.37;;;21.00;;
16892;SDS011;8563;52.242;9.098;2023-05-07T00:58:16;22.27;;;20.07;;
16892;SDS011;8563;52.242;9.098;2023-05-07T01:00:49;22.77;;;20.57;;
16892;SDS011;8563;52.242;9.098;2023-05-07T01:03:21;22.43;;;20.27;;
16892;SDS011;8563;52.242;9.098;2023-05-07T01:05:54;22.70;;;20.60;;
16892;SDS011;8563;52.242;9.098;2023-05-07T01:08:27;23.30;;;20.90;;
16892;SDS011;8563;52.242;9.098;2023-05-07T01:11:00;23.17;;;20.90;;
16892;SDS011;8563;52.242;9.098;2023-05-07T01:13:35;24.37;;;21.97;;
16892;SDS011;8563;52.242;9.098;2023-05-07T01:16:08;25.20;;;22.77;;
16892;SDS011;8563;52.242;9.098;2023-05-07T01:18:41;23.13;;;20.93;;
16892;SDS011;8563;52.242;9.098;2023-05-07T01:21:15;24.30;;;21.90;;
16892;SDS011;8563;52.242;9.098;2023-05-07T01:23:50;24.23;;;21.80;;
16892;SDS011;8563;52.242;9.098;2023-05-07T01:26:23;25.27;;;22.70;;
16892;SDS011;8563;52.242;9.098;2023-05-07T01:28:56;25.50;;;23.00;;
16892;SDS011;8563;52.242;9.098;2023-05-07T01:31:29;23.43;;;21.23;;
16892;SDS011;8563;52.242;9.098;2023-05-07T01:34:01;26.23;;;23.50;;
16892;SDS011;8563;52.242;9.098;2023-05-07T01:36:36;23.07;;;20.87;;
16892;SDS011;8563;52.242;9.098;2023-05-07T01:39:10;24.80;;;22.37;;
16892;SDS011;8563;52.242;9.098;2023-05-07T01:41:43;21.23;;;19.03;;
16892;SDS011;8563;52.242;9.098;2023-05-07T01:44:15;22.97;;;20.87;;
16892;SDS011;8563;52.242;9.098;2023-05-07T01:46:49;25.60;;;23.00;;
16892;SDS011;8563;52.242;9.098;2023-05-07T01:49:21;26.13;;;23.57;;
16892;SDS011;8563;52.242;9.098;2023-05-07T01:51:54;26.63;;;24.03;;
16892;SDS011;8563;52.242;9.098;2023-05-07T01:54:28;25.97;;;23.43;;
16892;SDS011;8563;52.242;9.098;2023-05-07T01:57:02;26.40;;;23.70;;
16892;SDS011;8563;52.242;9.098;2023-05-07T01:59:34;25.13;;;22.63;;
16892;SDS011;8563;52.242;9.098;2023-05-07T02:02:07;27.63;;;24.70;;
16892;SDS011;8563;52.242;9.098;2023-05-07T02:04:41;25.60;;;22.97;;
16892;SDS011;8563;52.242;9.098;2023-05-07T02:07:13;24.73;;;22.13;;
16892;SDS011;8563;52.242;9.098;2023-05-07T02:09:48;23.47;;;20.97;;
16892;SDS011;8563;52.242;9.098;2023-05-07T02:12:20;27.30;;;24.43;;
16892;SDS011;8563;52.242;9.098;2023-05-07T02:14:52;27.57;;;24.77;;
16892;SDS011;8563;52.242;9.098;2023-05-07T02:17:25;27.30;;;24.33;;
16892;SDS011;8563;52.242;9.098;2023-05-07T02:19:57;27.00;;;24.20;;
16892;SDS011;8563;52.242;9.098;2023-05-07T02:22:30;26.57;;;23.77;;
16892;SDS011;8563;52.242;9.098;2023-05-07T02:25:05;27.77;;;24.87;;
16892;SDS011;8563;52.242;9.098;2023-05-07T02:27:38;27.07;;;24.10;;
16892;SDS011;8563;52.242;9.098;2023-05-07T02:30:11;27.67;;;24.43;;
16892;SDS011;8563;52.242;9.098;2023-05-07T02:32:43;27.03;;;24.13;;
16892;SDS011;8563;52.242;9.098;2023-05-07T02:35:16;27.53;;;24.53;;
16892;SDS011;8563;52.242;9.098;2023-05-07T02:37:48;28.40;;;25.40;;
16892;SDS011;8563;52.242;9.098;2023-05-07T02:40:22;27.77;;;24.77;;
16892;SDS011;8563;52.242;9.098;2023-05-07T02:42:55;28.13;;;24.60;;
16892;SDS011;8563;52.242;9.098;2023-05-07T02:45:28;26.83;;;23.90;;
16892;SDS011;8563;52.242;9.098;2023-05-07T02:48:00;27.50;;;24.70;;
16892;SDS011;8563;52.242;9.098;2023-05-07T02:50:33;25.90;;;23.17;;
16892;SDS011;8563;52.242;9.098;2023-05-07T02:53:06;26.10;;;23.37;;
16892;SDS011;8563;52.242;9.098;2023-05-07T02:55:40;29.00;;;24.77;;
16892;SDS011;8563;52.242;9.098;2023-05-07T02:58:12;27.90;;;24.43;;
16892;SDS011;8563;52.242;9.098;2023-05-07T03:00:46;27.97;;;24.33;;
16892;SDS011;8563;52.242;9.098;2023-05-07T03:03:36;25.80;;;23.00;;
16892;SDS011;8563;52.242;9.098;2023-05-07T03:06:09;29.00;;;25.00;;
16892;SDS011;8563;52.242;9.098;2023-05-07T03:08:41;26.80;;;23.53;;
16892;SDS011;8563;52.242;9.098;2023-05-07T03:11:15;27.57;;;24.23;;
16892;SDS011;8563;52.242;9.098;2023-05-07T03:13:48;30.27;;;25.83;;
16892;SDS011;8563;52.242;9.098;2023-05-07T03:16:22;27.40;;;24.33;;
16892;SDS011;8563;52.242;9.098;2023-05-07T03:18:56;27.30;;;23.37;;
16892;SDS011;8563;52.242;9.098;2023-05-07T03:21:28;30.30;;;24.80;;
16892;SDS011;8563;52.242;9.098;2023-05-07T03:24:04;29.47;;;25.70;;
16892;SDS011;8563;52.242;9.098;2023-05-07T03:26:38;31.60;;;25.63;;
16892;SDS011;8563;52.242;9.098;2023-05-07T03:29:11;29.87;;;24.73;;
16892;SDS011;8563;52.242;9.098;2023-05-07T03:31:43;28.73;;;24.93;;
16892;SDS011;8563;52.242;9.098;2023-05-07T03:34:16;29.47;;;24.40;;
16892;SDS011;8563;52.242;9.098;2023-05-07T03:36:52;24.70;;;21.37;;
16892;SDS011;8563;52.242;9.098;2023-05-07T03:39:27;28.10;;;23.40;;
16892;SDS011;8563;52.242;9.098;2023-05-07T03:42:01;26.87;;;22.73;;
16892;SDS011;8563;52.242;9.098;2023-05-07T03:44:36;28.87;;;24.43;;
16892;SDS011;8563;52.242;9.098;2023-05-07T03:47:08;25.33;;;22.23;;
16892;SDS011;8563;52.242;9.098;2023-05-07T03:49:42;27.67;;;22.33;;
16892;SDS011;8563;52.242;9.098;2023-05-07T03:52:16;23.33;;;20.83;;
16892;SDS011;8563;52.242;9.098;2023-05-07T03:54:52;25.13;;;20.73;;
16892;SDS011;8563;52.242;9.098;2023-05-07T03:57:27;23.90;;;19.90;;
16892;SDS011;8563;52.242;9.098;2023-05-07T04:00:01;22.67;;;19.93;;
16892;SDS011;8563;52.242;9.098;2023-05-07T04:02:39;20.00;;;17.83;;
16892;SDS011;8563;52.242;9.098;2023-05-07T04:05:12;21.10;;;18.83;;
16892;SDS011;8563;52.242;9.098;2023-05-07T04:07:47;23.90;;;18.90;;
16892;SDS011;8563;52.242;9.098;2023-05-07T04:10:24;22.57;;;18.87;;
16892;SDS011;8563;52.242;9.098;2023-05-07T04:13:01;20.20;;;18.10;;
16892;SDS011;8563;52.242;9.098;2023-05-07T04:15:35;19.87;;;17.73;;
16892;SDS011;8563;52.242;9.098;2023-05-07T04:18:09;20.77;;;17.73;;
16892;SDS011;8563;52.242;9.098;2023-05-07T04:20:44;22.10;;;18.80;;
16892;SDS011;8563;52.242;9.098;2023-05-07T04:23:18;20.67;;;18.10;;
16892;SDS011;8563;52.242;9.098;2023-05-07T04:25:51;18.97;;;16.93;;
16892;SDS011;8563;52.242;9.098;2023-05-07T04:28:47;18.07;;;16.17;;
16892;SDS011;8563;52.242;9.098;2023-05-07T04:31:19;18.90;;;16.60;;
16892;SDS011;8563;52.242;9.098;2023-05-07T04:33:55;18.57;;;16.57;;
16892;SDS011;8563;52.242;9.098;2023-05-07T04:36:28;17.83;;;15.93;;
16892;SDS011;8563;52.242;9.098;2023-05-07T04:39:07;18.20;;;14.90;;
16892;SDS011;8563;52.242;9.098;2023-05-07T04:41:41;19.33;;;16.20;;
16892;SDS011;8563;52.242;9.098;2023-05-07T04:44:15;16.33;;;14.73;;
16892;SDS011;8563;52.242;9.098;2023-05-07T04:46:48;17.30;;;15.50;;
16892;SDS011;8563;52.242;9.098;2023-05-07T04:49:22;18.07;;;15.23;;
16892;SDS011;8563;52.242;9.098;2023-05-07T04:51:56;15.20;;;13.60;;
16892;SDS011;8563;52.242;9.098;2023-05-07T04:54:29;16.93;;;15.23;;
16892;SDS011;8563;52.242;9.098;2023-05-07T04:57:03;18.03;;;15.57;;
16892;SDS011;8563;52.242;9.098;2023-05-07T04:59:37;17.17;;;15.47;;
16892;SDS011;8563;52.242;9.098;2023-05-07T05:02:10;15.57;;;13.97;;
16892;SDS011;8563;52.242;9.098;2023-05-07T05:04:43;17.10;;;15.30;;
16892;SDS011;8563;52.242;9.098;2023-05-07T05:07:15;16.10;;;14.07;;
16892;SDS011;8563;52.242;9.098;2023-05-07T05:09:48;17.13;;;15.33;;
16892;SDS011;8563;52.242;9.098;2023-05-07T05:12:20;20.50;;;16.40;;
16892;SDS011;8563;52.242;9.098;2023-05-07T05:14:55;17.67;;;15.67;;
16892;SDS011;8563;52.242;9.098;2023-05-07T05:17:27;17.03;;;15.23;;
16892;SDS011;8563;52.242;9.098;2023-05-07T05:20:00;15.73;;;14.13;;
16892;SDS011;8563;52.242;9.098;2023-05-07T05:22:33;18.07;;;16.17;;
16892;SDS011;8563;52.242;9.098;2023-05-07T05:25:06;17.70;;;15.83;;
16892;SDS011;8563;52.242;9.098;2023-05-07T05:27:39;16.07;;;14.47;;
16892;SDS011;8563;52.242;9.098;2023-05-07T05:30:14;16.40;;;14.80;;
16892;SDS011;8563;52.242;9.098;2023-05-07T05:32:49;18.23;;;16.33;;
16892;SDS011;8563;52.242;9.098;2023-05-07T05:35:22;16.20;;;14.60;;
16892;SDS011;8563;52.242;9.098;2023-05-07T05:37:54;18.53;;;16.63;;
16892;SDS011;8563;52.242;9.098;2023-05-07T05:40:27;16.60;;;15.00;;
16892;SDS011;8563;52.242;9.098;2023-05-07T05:43:00;16.33;;;14.77;;
16892;SDS011;8563;52.242;9.098;2023-05-07T05:45:34;16.80;;;15.10;;
16892;SDS011;8563;52.242;9.098;2023-05-07T05:48:06;17.43;;;15.60;;
16892;SDS011;8563;52.242;9.098;2023-05-07T05:50:41;16.07;;;14.47;;
16892;SDS011;8563;52.242;9.098;2023-05-07T05:53:14;15.40;;;13.80;;
16892;SDS011;8563;52.242;9.098;2023-05-07T05:55:47;15.50;;;14.07;;
16892;SDS011;8563;52.242;9.098;2023-05-07T05:58:22;16.47;;;14.87;;
16892;SDS011;8563;52.242;9.098;2023-05-07T06:01:01;15.90;;;14.20;;
16892;SDS011;8563;52.242;9.098;2023-05-07T06:03:35;16.27;;;14.13;;
16892;SDS011;8563;52.242;9.098;2023-05-07T06:06:12;16.27;;;14.67;;
16892;SDS011;8563;52.242;9.098;2023-05-07T06:08:46;15.60;;;14.07;;
16892;SDS011;8563;52.242;9.098;2023-05-07T06:11:24;15.13;;;13.63;;
16892;SDS011;8563;52.242;9.098;2023-05-07T06:13:56;15.90;;;14.30;;
16892;SDS011;8563;52.242;9.098;2023-05-07T06:16:32;15.27;;;13.67;;
16892;SDS011;8563;52.242;9.098;2023-05-07T06:19:04;16.03;;;14.43;;
16892;SDS011;8563;52.242;9.098;2023-05-07T06:21:38;14.33;;;12.83;;
16892;SDS011;8563;52.242;9.098;2023-05-07T06:24:11;15.80;;;14.30;;
16892;SDS011;8563;52.242;9.098;2023-05-07T06:26:45;14.83;;;13.33;;
16892;SDS011;8563;52.242;9.098;2023-05-07T06:29:18;14.53;;;13.10;;
16892;SDS011;8563;52.242;9.098;2023-05-07T06:31:52;14.73;;;13.27;;
16892;SDS011;8563;52.242;9.098;2023-05-07T06:34:26;14.57;;;13.07;;
16892;SDS011;8563;52.242;9.098;2023-05-07T06:36:59;14.57;;;13.07;;
16892;SDS011;8563;52.242;9.098;2023-05-07T06:40:04;14.77;;;12.07;;
16892;SDS011;8563;52.242;9.098;2023-05-07T06:42:39;14.33;;;12.87;;
16892;SDS011;8563;52.242;9.098;2023-05-07T06:45:41;13.43;;;12.10;;
16892;SDS011;8563;52.242;9.098;2023-05-07T06:48:16;13.47;;;12.13;;
16892;SDS011;8563;52.242;9.098;2023-05-07T06:51:04;14.57;;;12.90;;
16892;SDS011;8563;52.242;9.098;2023-05-07T06:53:36;12.73;;;11.43;;
16892;SDS011;8563;52.242;9.098;2023-05-07T06:56:09;13.57;;;12.17;;
16892;SDS011;8563;52.242;9.098;2023-05-07T06:58:43;14.30;;;12.40;;
16892;SDS011;8563;52.242;9.098;2023-05-07T07:01:16;14.60;;;13.10;;
16892;SDS011;8563;52.242;9.098;2023-05-07T07:03:50;14.17;;;12.77;;
16892;SDS011;8563;52.242;9.098;2023-05-07T07:06:24;14.30;;;12.80;;
16892;SDS011;8563;52.242;9.098;2023-05-07T07:08:57;14.87;;;13.17;;
16892;SDS011;8563;52.242;9.098;2023-05-07T07:11:39;14.10;;;12.47;;
16892;SDS011;8563;52.242;9.098;2023-05-07T07:14:12;14.83;;;13.20;;
16892;SDS011;8563;52.242;9.098;2023-05-07T07:16:50;15.23;;;13.63;;
16892;SDS011;8563;52.242;9.098;2023-05-07T07:19:24;14.30;;;12.90;;
16892;SDS011;8563;52.242;9.098;2023-05-07T07:21:58;14.30;;;12.80;;
16892;SDS011;8563;52.242;9.098;2023-05-07T07:24:31;12.97;;;11.63;;
16892;SDS011;8563;52.242;9.098;2023-05-07T07:27:08;14.07;;;12.67;;
16892;SDS011;8563;52.242;9.098;2023-05-07T07:29:41;12.40;;;11.17;;
16892;SDS011;8563;52.242;9.098;2023-05-07T07:32:14;14.40;;;13.00;;
16892;SDS011;8563;52.242;9.098;2023-05-07T07:34:46;12.23;;;10.80;;
16892;SDS011;8563;52.242;9.098;2023-05-07T07:37:19;16.00;;;13.50;;
16892;SDS011;8563;52.242;9.098;2023-05-07T07:39:52;12.97;;;11.67;;
16892;SDS011;8563;52.242;9.098;2023-05-07T07:42:27;14.00;;;12.27;;
16892;SDS011;8563;52.242;9.098;2023-05-07T07:45:01;13.63;;;12.00;;
16892;SDS011;8563;52.242;9.098;2023-05-07T07:47:37;14.00;;;12.50;;
16892;SDS011;8563;52.242;9.098;2023-05-07T07:50:11;13.70;;;12.30;;
16892;SDS011;8563;52.242;9.098;2023-05-07T07:52:44;14.00;;;11.80;;
16892;SDS011;8563;52.242;9.098;2023-05-07T07:55:19;12.87;;;11.37;;
16892;SDS011;8563;52.242;9.098;2023-05-07T07:57:56;13.53;;;12.13;;
16892;SDS011;8563;52.242;9.098;2023-05-07T08:00:29;13.83;;;11.43;;
16892;SDS011;8563;52.242;9.098;2023-05-07T08:03:01;13.57;;;12.17;;
16892;SDS011;8563;52.242;9.098;2023-05-07T08:05:39;15.30;;;12.40;;
16892;SDS011;8563;52.242;9.098;2023-05-07T08:08:12;13.60;;;12.30;;
16892;SDS011;8563;52.242;9.098;2023-05-07T08:10:46;13.53;;;12.13;;
16892;SDS011;8563;52.242;9.098;2023-05-07T08:13:27;13.33;;;11.97;;
16892;SDS011;8563;52.242;9.098;2023-05-07T08:16:00;15.07;;;13.37;;
16892;SDS011;8563;52.242;9.098;2023-05-07T08:18:33;14.00;;;12.60;;
16892;SDS011;8563;52.242;9.098;2023-05-07T08:21:06;13.70;;;12.37;;
16892;SDS011;8563;52.242;9.098;2023-05-07T08:23:39;13.00;;;11.73;;
16892;SDS011;8563;52.242;9.098;2023-05-07T08:26:12;13.53;;;12.13;;
16892;SDS011;8563;52.242;9.098;2023-05-07T08:28:47;13.53;;;12.20;;
16892;SDS011;8563;52.242;9.098;2023-05-07T08:31:20;12.03;;;10.87;;
16892;SDS011;8563;52.242;9.098;2023-05-07T08:33:52;12.70;;;11.40;;
16892;SDS011;8563;52.242;9.098;2023-05-07T08:36:25;12.23;;;11.10;;
16892;SDS011;8563;52.242;9.098;2023-05-07T08:38:58;14.10;;;12.67;;
16892;SDS011;8563;52.242;9.098;2023-05-07T08:41:31;13.03;;;11.53;;
16892;SDS011;8563;52.242;9.098;2023-05-07T08:44:06;12.00;;;10.80;;
16892;SDS011;8563;52.242;9.098;2023-05-07T08:46:43;11.83;;;10.63;;
16892;SDS011;8563;52.242;9.098;2023-05-07T08:49:21;12.60;;;11.30;;
16892;SDS011;8563;52.242;9.098;2023-05-07T08:51:54;11.57;;;10.37;;
16892;SDS011;8563;52.242;9.098;2023-05-07T08:54:28;11.60;;;10.50;;
16892;SDS011;8563;52.242;9.098;2023-05-07T08:57:01;11.07;;;9.97;;
16892;SDS011;8563;52.242;9.098;2023-05-07T08:59:39;13.20;;;10.93;;
16892;SDS011;8563;52.242;9.098;2023-05-07T09:02:14;11.10;;;10.00;;
16892;SDS011;8563;52.242;9.098;2023-05-07T09:04:47;11.43;;;10.33;;
16892;SDS011;8563;52.242;9.098;2023-05-07T09:07:21;11.53;;;10.33;;
16892;SDS011;8563;52.242;9.098;2023-05-07T09:09:54;11.27;;;10.07;;
16892;SDS011;8563;52.242;9.098;2023-05-07T09:12:28;11.27;;;10.03;;
16892;SDS011;8563;52.242;9.098;2023-05-07T09:15:03;10.17;;;9.17;;
16892;SDS011;8563;52.242;9.098;2023-05-07T09:17:36;10.17;;;9.17;;
16892;SDS011;8563;52.242;9.098;2023-05-07T09:20:09;9.60;;;8.43;;
16892;SDS011;8563;52.242;9.098;2023-05-07T09:22:43;8.97;;;8.17;;
16892;SDS011;8563;52.242;9.098;2023-05-07T09:25:27;9.60;;;8.70;;
16892;SDS011;8563;52.242;9.098;2023-05-07T09:28:01;10.17;;;8.33;;
16892;SDS011;8563;52.242;9.098;2023-05-07T09:30:35;9.50;;;8.60;;
16892;SDS011;8563;52.242;9.098;2023-05-07T09:33:10;8.53;;;7.67;;
16892;SDS011;8563;52.242;9.098;2023-05-07T09:35:48;9.00;;;8.20;;
16892;SDS011;8563;52.242;9.098;2023-05-07T09:38:24;10.63;;;8.53;;
16892;SDS011;8563;52.242;9.098;2023-05-07T09:41:02;9.53;;;8.53;;
16892;SDS011;8563;52.242;9.098;2023-05-07T09:43:38;9.30;;;8.40;;
16892;SDS011;8563;52.242;9.098;2023-05-07T09:46:14;9.63;;;8.53;;
16892;SDS011;8563;52.242;9.098;2023-05-07T09:48:54;8.17;;;7.37;;
16892;SDS011;8563;52.242;9.098;2023-05-07T09:51:30;8.80;;;8.00;;
16892;SDS011;8563;52.242;9.098;2023-05-07T09:54:07;8.50;;;7.70;;
16892;SDS011;8563;52.242;9.098;2023-05-07T09:56:42;8.23;;;7.43;;
16892;SDS011;8563;52.242;9.098;2023-05-07T09:59:16;8.00;;;7.30;;
16892;SDS011;8563;52.242;9.098;2023-05-07T10:01:51;8.13;;;7.43;;
16892;SDS011;8563;52.242;9.098;2023-05-07T10:04:24;8.03;;;7.23;;
16892;SDS011;8563;52.242;9.098;2023-05-07T10:06:57;7.30;;;6.70;;
16892;SDS011;8563;52.242;9.098;2023-05-07T10:09:31;7.15;;;6.45;;
16892;SDS011;8563;52.242;9.098;2023-05-07T10:12:06;7.00;;;6.40;;
16892;SDS011;8563;52.242;9.098;2023-05-07T10:14:39;6.17;;;5.67;;
16892;SDS011;8563;52.242;9.098;2023-05-07T10:17:14;6.73;;;6.20;;
16892;SDS011;8563;52.242;9.098;2023-05-07T10:19:49;7.45;;;6.30;;
16892;SDS011;8563;52.242;9.098;2023-05-07T10:22:22;8.25;;;7.45;;
16892;SDS011;8563;52.242;9.098;2023-05-07T10:24:57;7.33;;;6.63;;
16892;SDS011;8563;52.242;9.098;2023-05-07T10:27:31;7.93;;;7.15;;
16892;SDS011;8563;52.242;9.098;2023-05-07T10:30:07;8.65;;;7.80;;
16892;SDS011;8563;52.242;9.098;2023-05-07T10:32:47;7.70;;;7.10;;
16892;SDS011;8563;52.242;9.098;2023-05-07T10:35:29;7.57;;;6.90;;
16892;SDS011;8563;52.242;9.098;2023-05-07T10:38:05;6.53;;;5.97;;
16892;SDS011;8563;52.242;9.098;2023-05-07T10:40:41;7.60;;;6.90;;
16892;SDS011;8563;52.242;9.098;2023-05-07T10:43:14;7.90;;;7.20;;
16892;SDS011;8563;52.242;9.098;2023-05-07T10:51:40;7.60;;;6.90;;
16892;SDS011;8563;52.242;9.098;2023-05-07T10:54:21;7.05;;;6.35;;
16892;SDS011;8563;52.242;9.098;2023-05-07T10:59:51;7.00;;;6.40;;
16892;SDS011;8563;52.242;9.098;2023-05-07T11:05:18;8.68;;;7.82;;
16892;SDS011;8563;52.242;9.098;2023-05-07T11:07:56;8.18;;;7.47;;
16892;SDS011;8563;52.242;9.098;2023-05-07T11:10:49;7.05;;;6.50;;
16892;SDS011;8563;52.242;9.098;2023-05-07T11:13:42;7.55;;;6.90;;
16892;SDS011;8563;52.242;9.098;2023-05-07T11:16:20;7.53;;;6.88;;
16892;SDS011;8563;52.242;9.098;2023-05-07T11:19:00;8.00;;;7.30;;
16892;SDS011;8563;52.242;9.098;2023-05-07T11:21:39;8.55;;;7.68;;
16892;SDS011;8563;52.242;9.098;2023-05-07T11:24:20;7.03;;;6.00;;
16892;SDS011;8563;52.242;9.098;2023-05-07T11:26:57;6.72;;;6.15;;
16892;SDS011;8563;52.242;9.098;2023-05-07T11:29:31;7.88;;;6.50;;
16892;SDS011;8563;52.242;9.098;2023-05-07T11:32:10;6.82;;;6.22;;
16892;SDS011;8563;52.242;9.098;2023-05-07T11:34:51;7.95;;;7.25;;
16892;SDS011;8563;52.242;9.098;2023-05-07T11:37:24;7.95;;;7.20;;
16892;SDS011;8563;52.242;9.098;2023-05-07T11:40:04;7.00;;;6.20;;
16892;SDS011;8563;52.242;9.098;2023-05-07T11:42:37;6.32;;;5.82;;
16892;SDS011;8563;52.242;9.098;2023-05-07T11:45:10;6.93;;;6.32;;
16892;SDS011;8563;52.242;9.098;2023-05-07T11:47:42;7.72;;;6.95;;
16892;SDS011;8563;52.242;9.098;2023-05-07T11:50:16;7.78;;;7.07;;
16892;SDS011;8563;52.242;9.098;2023-05-07T11:52:50;7.50;;;6.90;;
16892;SDS011;8563;52.242;9.098;2023-05-07T11:55:25;8.00;;;7.30;;
16892;SDS011;8563;52.242;9.098;2023-05-07T11:57:57;8.57;;;7.82;;
16892;SDS011;8563;52.242;9.098;2023-05-07T12:00:30;8.27;;;7.57;;
16892;SDS011;8563;52.242;9.098;2023-05-07T12:03:03;7.93;;;7.22;;
16892;SDS011;8563;52.242;9.098;2023-05-07T12:05:35;7.60;;;6.80;;
16892;SDS011;8563;52.242;9.098;2023-05-07T12:08:13;8.68;;;7.88;;
16892;SDS011;8563;52.242;9.098;2023-05-07T12:10:48;8.70;;;7.95;;
16892;SDS011;8563;52.242;9.098;2023-05-07T12:13:22;8.57;;;7.88;;
16892;SDS011;8563;52.242;9.098;2023-05-07T12:15:55;9.02;;;8.23;;
16892;SDS011;8563;52.242;9.098;2023-05-07T12:18:28;10.00;;;8.38;;
16892;SDS011;8563;52.242;9.098;2023-05-07T12:21:01;8.15;;;7.45;;
16892;SDS011;8563;52.242;9.098;2023-05-07T12:23:34;8.48;;;7.68;;
16892;SDS011;8563;52.242;9.098;2023-05-07T12:26:08;8.30;;;7.60;;
16892;SDS011;8563;52.242;9.098;2023-05-07T12:28:41;9.25;;;8.43;;
16892;SDS011;8563;52.242;9.098;2023-05-07T12:31:13;9.65;;;8.65;;
16892;SDS011;8563;52.242;9.098;2023-05-07T12:33:46;8.65;;;7.85;;
16892;SDS011;8563;52.242;9.098;2023-05-07T12:36:18;9.32;;;8.50;;
16892;SDS011;8563;52.242;9.098;2023-05-07T12:38:51;10.00;;;9.20;;
16892;SDS011;8563;52.242;9.098;2023-05-07T12:41:28;9.25;;;8.45;;
16892;SDS011;8563;52.242;9.098;2023-05-07T12:44:00;9.43;;;8.63;;
16892;SDS011;8563;52.242;9.098;2023-05-07T12:46:33;9.30;;;8.50;;
16892;SDS011;8563;52.242;9.098;2023-05-07T12:49:10;9.95;;;9.05;;
16892;SDS011;8563;52.242;9.098;2023-05-07T12:51:44;9.25;;;8.55;;
16892;SDS011;8563;52.242;9.098;2023-05-07T12:54:28;9.52;;;8.73;;
16892;SDS011;8563;52.242;9.098;2023-05-07T12:57:02;9.50;;;8.70;;
16892;SDS011;8563;52.242;9.098;2023-05-07T12:59:36;9.40;;;8.60;;
16892;SDS011;8563;52.242;9.098;2023-05-07T13:02:09;8.98;;;8.18;;
16892;SDS011;8563;52.242;9.098;2023-05-07T13:04:44;9.88;;;9.02;;
16892;SDS011;8563;52.242;9.098;2023-05-07T13:07:18;8.45;;;7.75;;
16892;SDS011;8563;52.242;9.098;2023-05-07T13:09:50;9.27;;;8.48;;
16892;SDS011;8563;52.242;9.098;2023-05-07T13:12:24;8.57;;;7.38;;
16892;SDS011;8563;52.242;9.098;2023-05-07T13:14:56;8.65;;;7.80;;
16892;SDS011;8563;52.242;9.098;2023-05-07T13:17:29;8.02;;;7.32;;
16892;SDS011;8563;52.242;9.098;2023-05-07T13:20:02;8.60;;;7.80;;
16892;SDS011;8563;52.242;9.098;2023-05-07T13:22:35;8.27;;;7.30;;
16892;SDS011;8563;52.242;9.098;2023-05-07T13:25:08;9.35;;;8.35;;
16892;SDS011;8563;52.242;9.098;2023-05-07T13:27:42;9.18;;;8.38;;
16892;SDS011;8563;52.242;9.098;2023-05-07T13:30:15;7.68;;;6.97;;
16892;SDS011;8563;52.242;9.098;2023-05-07T13:32:47;7.97;;;7.38;;
16892;SDS011;8563;52.242;9.098;2023-05-07T13:35:20;8.98;;;8.18;;
16892;SDS011;8563;52.242;9.098;2023-05-07T13:37:52;9.38;;;8.57;;
16892;SDS011;8563;52.242;9.098;2023-05-07T13:40:25;8.38;;;7.70;;
16892;SDS011;8563;52.242;9.098;2023-05-07T13:43:00;8.25;;;7.55;;
16892;SDS011;8563;52.242;9.098;2023-05-07T13:45:33;7.82;;;7.22;;
16892;SDS011;8563;52.242;9.098;2023-05-07T13:48:05;8.20;;;7.57;;
16892;SDS011;8563;52.242;9.098;2023-05-07T13:50:37;7.18;;;6.57;;
16892;SDS011;8563;52.242;9.098;2023-05-07T13:53:10;7.10;;;6.50;;
16892;SDS011;8563;52.242;9.098;2023-05-07T13:55:43;7.65;;;7.00;;
16892;SDS011;8563;52.242;9.098;2023-05-07T13:58:17;7.80;;;7.03;;
16892;SDS011;8563;52.242;9.098;2023-05-07T14:00:49;12.02;;;6.85;;
16892;SDS011;8563;52.242;9.098;2023-05-07T14:03:22;7.03;;;6.43;;
16892;SDS011;8563;52.242;9.098;2023-05-07T14:05:55;7.28;;;6.68;;
16892;SDS011;8563;52.242;9.098;2023-05-07T14:08:28;6.65;;;6.05;;
16892;SDS011;8563;52.242;9.098;2023-05-07T14:11:00;6.43;;;5.85;;
16892;SDS011;8563;52.242;9.098;2023-05-07T14:13:34;6.95;;;5.80;;
16892;SDS011;8563;52.242;9.098;2023-05-07T14:16:06;6.43;;;5.93;;
16892;SDS011;8563;52.242;9.098;2023-05-07T14:18:39;5.75;;;5.25;;
16892;SDS011;8563;52.242;9.098;2023-05-07T14:21:11;6.30;;;5.80;;
16892;SDS011;8563;52.242;9.098;2023-05-07T14:23:44;6.15;;;5.60;;
16892;SDS011;8563;52.242;9.098;2023-05-07T14:26:17;6.25;;;5.75;;
16892;SDS011;8563;52.242;9.098;2023-05-07T14:28:52;6.50;;;6.00;;
16892;SDS011;8563;52.242;9.098;2023-05-07T14:31:27;6.20;;;5.70;;
16892;SDS011;8563;52.242;9.098;2023-05-07T14:33:59;6.25;;;5.65;;
16892;SDS011;8563;52.242;9.098;2023-05-07T14:36:32;6.88;;;6.10;;
16892;SDS011;8563;52.242;9.098;2023-05-07T14:39:04;6.43;;;5.82;;
16892;SDS011;8563;52.242;9.098;2023-05-07T14:41:37;6.13;;;5.55;;
16892;SDS011;8563;52.242;9.098;2023-05-07T14:44:12;5.70;;;5.20;;
16892;SDS011;8563;52.242;9.098;2023-05-07T14:46:44;6.50;;;5.85;;
16892;SDS011;8563;52.242;9.098;2023-05-07T14:49:17;6.40;;;5.80;;
16892;SDS011;8563;52.242;9.098;2023-05-07T14:51:49;5.82;;;5.32;;
16892;SDS011;8563;52.242;9.098;2023-05-07T14:54:22;7.15;;;6.07;;
16892;SDS011;8563;52.242;9.098;2023-05-07T14:56:55;6.78;;;6.20;;
16892;SDS011;8563;52.242;9.098;2023-05-07T14:59:29;6.00;;;5.50;;
16892;SDS011;8563;52.242;9.098;2023-05-07T15:02:01;5.95;;;5.45;;
16892;SDS011;8563;52.242;9.098;2023-05-07T15:04:35;6.43;;;5.82;;
16892;SDS011;8563;52.242;9.098;2023-05-07T15:07:08;6.85;;;6.20;;
16892;SDS011;8563;52.242;9.098;2023-05-07T15:09:40;6.07;;;5.57;;
16892;SDS011;8563;52.242;9.098;2023-05-07T15:12:13;6.18;;;5.20;;
16892;SDS011;8563;52.242;9.098;2023-05-07T15:14:47;5.40;;;5.00;;
16892;SDS011;8563;52.242;9.098;2023-05-07T15:17:19;6.78;;;6.10;;
16892;SDS011;8563;52.242;9.098;2023-05-07T15:19:52;6.47;;;5.93;;
16892;SDS011;8563;52.242;9.098;2023-05-07T15:22:25;6.38;;;5.88;;
16892;SDS011;8563;52.242;9.098;2023-05-07T15:24:57;7.07;;;6.47;;
16892;SDS011;8563;52.242;9.098;2023-05-07T15:27:30;6.53;;;6.03;;
16892;SDS011;8563;52.242;9.098;2023-05-07T15:30:05;6.75;;;6.25;;
16892;SDS011;8563;52.242;9.098;2023-05-07T15:32:40;7.25;;;6.60;;
16892;SDS011;8563;52.242;9.098;2023-05-07T15:35:13;7.25;;;6.65;;
16892;SDS011;8563;52.242;9.098;2023-05-07T15:37:45;7.90;;;7.13;;
16892;SDS011;8563;52.242;9.098;2023-05-07T15:40:19;6.97;;;6.38;;